sensor_id;sensor_type;location;lat;lon;timestamp;P1;durP1;ratioP1;P2;durP2;ratioP2
11771;SDS011;12556;55.748;13.194;2023-06-14T00:01:07;4.30;;;3.13;;
11771;SDS011;12556;55.748;13.194;2023-06-14T00:03:34;3.23;;;2.70;;
11771;SDS011;12556;55.748;13.194;2023-06-14T00:06:01;5.33;;;3.17;;
11771;SDS011;12556;55.748;13.194;2023-06-14T00:08:28;3.10;;;2.80;;
11771;SDS011;12556;55.748;13.194;2023-06-14T00:10:56;4.53;;;2.40;;
11771;SDS011;12556;55.748;13.194;2023-06-14T00:13:23;5.33;;;3.03;;
11771;SDS011;12556;55.748;13.194;2023-06-14T00:15:50;5.50;;;2.57;;
11771;SDS011;12556;55.748;13.194;2023-06-14T00:18:20;3.40;;;2.77;;
11771;SDS011;12556;55.748;13.194;2023-06-14T00:20:49;4.37;;;2.83;;
11771;SDS011;12556;55.748;13.194;2023-06-14T00:23:17;4.20;;;2.70;;
11771;SDS011;12556;55.748;13.194;2023-06-14T00:25:44;3.30;;;2.93;;
11771;SDS011;12556;55.748;13.194;2023-06-14T00:28:12;3.10;;;2.80;;
11771;SDS011;12556;55.748;13.194;2023-06-14T00:30:39;4.83;;;2.70;;
11771;SDS011;12556;55.748;13.194;2023-06-14T00:33:06;2.57;;;2.30;;
11771;SDS011;12556;55.748;13.194;2023-06-14T00:35:33;2.70;;;2.50;;
11771;SDS011;12556;55.748;13.194;2023-06-14T00:38:00;3.20;;;2.77;;
11771;SDS011;12556;55.748;13.194;2023-06-14T00:40:27;5.17;;;2.63;;
11771;SDS011;12556;55.748;13.194;2023-06-14T00:42:53;4.93;;;2.80;;
11771;SDS011;12556;55.748;13.194;2023-06-14T00:45:22;3.80;;;3.23;;
11771;SDS011;12556;55.748;13.194;2023-06-14T00:47:49;3.80;;;2.77;;
11771;SDS011;12556;55.748;13.194;2023-06-14T00:50:17;3.40;;;2.73;;
11771;SDS011;12556;55.748;13.194;2023-06-14T00:52:45;4.13;;;2.90;;
11771;SDS011;12556;55.748;13.194;2023-06-14T00:55:12;4.70;;;3.00;;
11771;SDS011;12556;55.748;13.194;2023-06-14T00:57:39;3.10;;;2.87;;
11771;SDS011;12556;55.748;13.194;2023-06-14T01:00:07;4.50;;;2.97;;
11771;SDS011;12556;55.748;13.194;2023-06-14T01:02:36;4.77;;;3.00;;
11771;SDS011;12556;55.748;13.194;2023-06-14T01:05:04;5.60;;;3.07;;
11771;SDS011;12556;55.748;13.194;2023-06-14T01:07:34;4.30;;;2.77;;
11771;SDS011;12556;55.748;13.194;2023-06-14T01:10:17;3.70;;;2.63;;
11771;SDS011;12556;55.748;13.194;2023-06-14T01:12:58;4.30;;;3.03;;
11771;SDS011;12556;55.748;13.194;2023-06-14T01:15:29;4.17;;;2.87;;
11771;SDS011;12556;55.748;13.194;2023-06-14T01:17:59;4.27;;;3.47;;
11771;SDS011;12556;55.748;13.194;2023-06-14T01:20:28;4.27;;;2.93;;
11771;SDS011;12556;55.748;13.194;2023-06-14T01:22:57;3.70;;;2.60;;
11771;SDS011;12556;55.748;13.194;2023-06-14T01:25:25;6.13;;;2.73;;
11771;SDS011;12556;55.748;13.194;2023-06-14T01:27:53;3.37;;;2.87;;
11771;SDS011;12556;55.748;13.194;2023-06-14T01:30:23;5.57;;;2.50;;
11771;SDS011;12556;55.748;13.194;2023-06-14T01:32:52;5.30;;;2.47;;
11771;SDS011;12556;55.748;13.194;2023-06-14T01:35:19;3.63;;;2.60;;
11771;SDS011;12556;55.748;13.194;2023-06-14T01:37:47;2.80;;;2.50;;
11771;SDS011;12556;55.748;13.194;2023-06-14T01:40:16;3.77;;;2.67;;
11771;SDS011;12556;55.748;13.194;2023-06-14T01:42:45;3.53;;;2.93;;
11771;SDS011;12556;55.748;13.194;2023-06-14T01:45:13;4.97;;;3.10;;
11771;SDS011;12556;55.748;13.194;2023-06-14T01:47:41;4.57;;;2.90;;
11771;SDS011;12556;55.748;13.194;2023-06-14T01:50:10;3.73;;;2.63;;
11771;SDS011;12556;55.748;13.194;2023-06-14T01:52:37;4.27;;;2.77;;
11771;SDS011;12556;55.748;13.194;2023-06-14T01:55:04;3.67;;;2.73;;
11771;SDS011;12556;55.748;13.194;2023-06-14T01:57:34;4.00;;;3.20;;
11771;SDS011;12556;55.748;13.194;2023-06-14T02:00:01;6.73;;;3.67;;
11771;SDS011;12556;55.748;13.194;2023-06-14T02:02:28;6.23;;;3.70;;
11771;SDS011;12556;55.748;13.194;2023-06-14T02:04:55;5.27;;;3.40;;
11771;SDS011;12556;55.748;13.194;2023-06-14T02:07:23;4.63;;;3.77;;
11771;SDS011;12556;55.748;13.194;2023-06-14T02:09:50;4.20;;;3.30;;
11771;SDS011;12556;55.748;13.194;2023-06-14T02:12:17;8.13;;;3.27;;
11771;SDS011;12556;55.748;13.194;2023-06-14T02:14:45;4.13;;;3.30;;
11771;SDS011;12556;55.748;13.194;2023-06-14T02:17:12;3.60;;;2.60;;
11771;SDS011;12556;55.748;13.194;2023-06-14T02:19:39;4.27;;;3.33;;
11771;SDS011;12556;55.748;13.194;2023-06-14T02:22:06;8.27;;;4.30;;
11771;SDS011;12556;55.748;13.194;2023-06-14T02:24:33;9.07;;;4.30;;
11771;SDS011;12556;55.748;13.194;2023-06-14T02:27:00;5.23;;;3.90;;
11771;SDS011;12556;55.748;13.194;2023-06-14T02:29:27;4.87;;;4.00;;
11771;SDS011;12556;55.748;13.194;2023-06-14T02:31:55;5.10;;;2.80;;
11771;SDS011;12556;55.748;13.194;2023-06-14T02:34:22;4.47;;;3.30;;
11771;SDS011;12556;55.748;13.194;2023-06-14T02:36:49;5.73;;;3.67;;
11771;SDS011;12556;55.748;13.194;2023-06-14T02:39:17;6.53;;;3.10;;
11771;SDS011;12556;55.748;13.194;2023-06-14T02:41:45;3.37;;;3.00;;
11771;SDS011;12556;55.748;13.194;2023-06-14T02:44:13;6.30;;;3.47;;
11771;SDS011;12556;55.748;13.194;2023-06-14T02:46:40;5.30;;;3.00;;
11771;SDS011;12556;55.748;13.194;2023-06-14T02:49:11;3.77;;;3.00;;
11771;SDS011;12556;55.748;13.194;2023-06-14T02:51:38;4.03;;;3.17;;
11771;SDS011;12556;55.748;13.194;2023-06-14T02:54:05;3.93;;;3.13;;
11771;SDS011;12556;55.748;13.194;2023-06-14T02:56:32;6.43;;;3.50;;
11771;SDS011;12556;55.748;13.194;2023-06-14T02:58:58;3.53;;;2.97;;
11771;SDS011;12556;55.748;13.194;2023-06-14T03:01:26;5.17;;;3.73;;
11771;SDS011;12556;55.748;13.194;2023-06-14T03:03:59;5.30;;;3.40;;
11771;SDS011;12556;55.748;13.194;2023-06-14T03:06:27;4.37;;;3.60;;
11771;SDS011;12556;55.748;13.194;2023-06-14T03:08:55;6.83;;;3.70;;
11771;SDS011;12556;55.748;13.194;2023-06-14T03:11:25;3.47;;;3.17;;
11771;SDS011;12556;55.748;13.194;2023-06-14T03:13:51;7.03;;;3.87;;
11771;SDS011;12556;55.748;13.194;2023-06-14T03:16:18;5.27;;;3.43;;
11771;SDS011;12556;55.748;13.194;2023-06-14T03:18:48;4.73;;;3.60;;
11771;SDS011;12556;55.748;13.194;2023-06-14T03:21:15;5.47;;;3.47;;
11771;SDS011;12556;55.748;13.194;2023-06-14T03:23:43;6.60;;;3.30;;
11771;SDS011;12556;55.748;13.194;2023-06-14T03:26:10;5.93;;;3.50;;
11771;SDS011;12556;55.748;13.194;2023-06-14T03:28:40;3.73;;;3.37;;
11771;SDS011;12556;55.748;13.194;2023-06-14T03:31:06;4.73;;;3.10;;
11771;SDS011;12556;55.748;13.194;2023-06-14T03:33:34;6.27;;;2.97;;
11771;SDS011;12556;55.748;13.194;2023-06-14T03:36:01;7.50;;;2.97;;
11771;SDS011;12556;55.748;13.194;2023-06-14T03:38:28;5.17;;;2.70;;
11771;SDS011;12556;55.748;13.194;2023-06-14T03:40:57;3.50;;;2.77;;
11771;SDS011;12556;55.748;13.194;2023-06-14T03:43:23;4.73;;;2.60;;
11771;SDS011;12556;55.748;13.194;2023-06-14T03:45:50;8.03;;;2.90;;
11771;SDS011;12556;55.748;13.194;2023-06-14T03:48:17;4.37;;;2.60;;
11771;SDS011;12556;55.748;13.194;2023-06-14T03:50:44;4.13;;;2.67;;
11771;SDS011;12556;55.748;13.194;2023-06-14T03:53:11;4.70;;;2.87;;
11771;SDS011;12556;55.748;13.194;2023-06-14T03:55:38;5.60;;;2.53;;
11771;SDS011;12556;55.748;13.194;2023-06-14T03:58:06;2.63;;;2.43;;
11771;SDS011;12556;55.748;13.194;2023-06-14T04:00:33;4.33;;;2.60;;
11771;SDS011;12556;55.748;13.194;2023-06-14T04:03:01;4.83;;;2.50;;
11771;SDS011;12556;55.748;13.194;2023-06-14T04:05:28;5.37;;;2.83;;
11771;SDS011;12556;55.748;13.194;2023-06-14T04:07:56;2.20;;;2.00;;
11771;SDS011;12556;55.748;13.194;2023-06-14T04:10:23;3.67;;;2.03;;
11771;SDS011;12556;55.748;13.194;2023-06-14T04:12:50;3.77;;;2.30;;
11771;SDS011;12556;55.748;13.194;2023-06-14T04:15:19;3.27;;;2.47;;
11771;SDS011;12556;55.748;13.194;2023-06-14T04:17:46;3.20;;;2.70;;
11771;SDS011;12556;55.748;13.194;2023-06-14T04:20:12;4.40;;;2.77;;
11771;SDS011;12556;55.748;13.194;2023-06-14T04:22:39;7.10;;;2.87;;
11771;SDS011;12556;55.748;13.194;2023-06-14T04:25:08;4.00;;;2.17;;
11771;SDS011;12556;55.748;13.194;2023-06-14T04:27:37;4.87;;;2.80;;
11771;SDS011;12556;55.748;13.194;2023-06-14T04:30:05;2.83;;;2.33;;
11771;SDS011;12556;55.748;13.194;2023-06-14T04:32:34;3.33;;;1.93;;
11771;SDS011;12556;55.748;13.194;2023-06-14T04:35:04;7.63;;;2.57;;
11771;SDS011;12556;55.748;13.194;2023-06-14T04:37:32;4.33;;;2.70;;
11771;SDS011;12556;55.748;13.194;2023-06-14T04:39:59;3.67;;;2.30;;
11771;SDS011;12556;55.748;13.194;2023-06-14T04:42:30;7.20;;;2.30;;
11771;SDS011;12556;55.748;13.194;2023-06-14T04:44:57;3.77;;;2.10;;
11771;SDS011;12556;55.748;13.194;2023-06-14T04:47:24;2.90;;;2.23;;
11771;SDS011;12556;55.748;13.194;2023-06-14T04:49:56;2.87;;;2.20;;
11771;SDS011;12556;55.748;13.194;2023-06-14T04:52:23;5.60;;;2.40;;
11771;SDS011;12556;55.748;13.194;2023-06-14T04:54:51;7.27;;;2.60;;
11771;SDS011;12556;55.748;13.194;2023-06-14T04:57:19;5.83;;;2.77;;
11771;SDS011;12556;55.748;13.194;2023-06-14T04:59:47;2.97;;;2.23;;
11771;SDS011;12556;55.748;13.194;2023-06-14T05:02:19;4.23;;;2.30;;
11771;SDS011;12556;55.748;13.194;2023-06-14T05:04:47;2.97;;;2.40;;
11771;SDS011;12556;55.748;13.194;2023-06-14T05:07:15;2.47;;;2.23;;
11771;SDS011;12556;55.748;13.194;2023-06-14T05:09:42;3.27;;;2.70;;
11771;SDS011;12556;55.748;13.194;2023-06-14T05:12:09;5.80;;;2.77;;
11771;SDS011;12556;55.748;13.194;2023-06-14T05:14:36;4.20;;;2.80;;
11771;SDS011;12556;55.748;13.194;2023-06-14T05:17:03;6.77;;;2.73;;
11771;SDS011;12556;55.748;13.194;2023-06-14T05:19:30;6.83;;;2.70;;
11771;SDS011;12556;55.748;13.194;2023-06-14T05:21:57;5.90;;;2.60;;
11771;SDS011;12556;55.748;13.194;2023-06-14T05:24:26;4.43;;;2.53;;
11771;SDS011;12556;55.748;13.194;2023-06-14T05:26:54;8.13;;;2.83;;
11771;SDS011;12556;55.748;13.194;2023-06-14T05:29:21;9.10;;;3.50;;
11771;SDS011;12556;55.748;13.194;2023-06-14T05:31:48;20.80;;;3.67;;
11771;SDS011;12556;55.748;13.194;2023-06-14T05:34:15;15.30;;;3.80;;
11771;SDS011;12556;55.748;13.194;2023-06-14T05:36:42;11.90;;;3.50;;
11771;SDS011;12556;55.748;13.194;2023-06-14T05:39:09;14.03;;;3.33;;
11771;SDS011;12556;55.748;13.194;2023-06-14T05:41:37;10.70;;;2.73;;
11771;SDS011;12556;55.748;13.194;2023-06-14T05:44:04;6.63;;;2.93;;
11771;SDS011;12556;55.748;13.194;2023-06-14T05:46:31;8.27;;;2.77;;
11771;SDS011;12556;55.748;13.194;2023-06-14T05:48:58;6.63;;;2.80;;
11771;SDS011;12556;55.748;13.194;2023-06-14T05:51:24;9.10;;;2.77;;
11771;SDS011;12556;55.748;13.194;2023-06-14T05:53:51;6.57;;;2.50;;
11771;SDS011;12556;55.748;13.194;2023-06-14T05:56:19;3.10;;;2.40;;
11771;SDS011;12556;55.748;13.194;2023-06-14T05:58:47;4.10;;;2.70;;
11771;SDS011;12556;55.748;13.194;2023-06-14T06:01:14;3.50;;;2.40;;
11771;SDS011;12556;55.748;13.194;2023-06-14T06:03:41;6.10;;;2.10;;
11771;SDS011;12556;55.748;13.194;2023-06-14T06:06:10;2.43;;;2.23;;
11771;SDS011;12556;55.748;13.194;2023-06-14T06:08:38;3.70;;;2.13;;
11771;SDS011;12556;55.748;13.194;2023-06-14T06:11:05;6.03;;;2.50;;
11771;SDS011;12556;55.748;13.194;2023-06-14T06:13:32;5.20;;;2.50;;
11771;SDS011;12556;55.748;13.194;2023-06-14T06:16:01;7.38;;;2.70;;
11771;SDS011;12556;55.748;13.194;2023-06-14T06:18:28;3.75;;;2.47;;
11771;SDS011;12556;55.748;13.194;2023-06-14T06:20:55;18.17;;;4.20;;
11771;SDS011;12556;55.748;13.194;2023-06-14T06:23:22;10.73;;;3.25;;
11771;SDS011;12556;55.748;13.194;2023-06-14T06:25:49;9.77;;;3.08;;
11771;SDS011;12556;55.748;13.194;2023-06-14T06:28:16;9.32;;;4.25;;
11771;SDS011;12556;55.748;13.194;2023-06-14T06:30:43;8.27;;;3.13;;
11771;SDS011;12556;55.748;13.194;2023-06-14T06:33:11;4.25;;;3.83;;
11771;SDS011;12556;55.748;13.194;2023-06-14T06:35:39;5.70;;;3.78;;
11771;SDS011;12556;55.748;13.194;2023-06-14T06:38:06;6.88;;;3.63;;
11771;SDS011;12556;55.748;13.194;2023-06-14T06:40:33;14.18;;;3.78;;
11771;SDS011;12556;55.748;13.194;2023-06-14T06:43:01;6.45;;;3.92;;
11771;SDS011;12556;55.748;13.194;2023-06-14T06:45:28;7.70;;;4.88;;
11771;SDS011;12556;55.748;13.194;2023-06-14T06:47:55;9.10;;;8.20;;
11771;SDS011;12556;55.748;13.194;2023-06-14T06:50:24;9.90;;;8.98;;
11771;SDS011;12556;55.748;13.194;2023-06-14T06:52:51;9.43;;;8.30;;
11771;SDS011;12556;55.748;13.194;2023-06-14T06:55:17;13.32;;;11.98;;
11771;SDS011;12556;55.748;13.194;2023-06-14T06:57:44;17.23;;;12.50;;
11771;SDS011;12556;55.748;13.194;2023-06-14T07:00:11;18.52;;;16.75;;
11771;SDS011;12556;55.748;13.194;2023-06-14T07:02:38;23.90;;;21.55;;
11771;SDS011;12556;55.748;13.194;2023-06-14T07:05:06;22.50;;;20.38;;
11771;SDS011;12556;55.748;13.194;2023-06-14T07:07:34;36.13;;;33.53;;
11771;SDS011;12556;55.748;13.194;2023-06-14T07:10:01;36.03;;;33.88;;
11771;SDS011;12556;55.748;13.194;2023-06-14T07:12:29;28.70;;;26.90;;
11771;SDS011;12556;55.748;13.194;2023-06-14T07:14:58;43.80;;;41.10;;
11771;SDS011;12556;55.748;13.194;2023-06-14T07:17:25;35.03;;;32.90;;
11771;SDS011;12556;55.748;13.194;2023-06-14T07:19:52;49.47;;;47.13;;
11771;SDS011;12556;55.748;13.194;2023-06-14T07:22:19;52.10;;;49.60;;
11771;SDS011;12556;55.748;13.194;2023-06-14T07:24:47;55.30;;;52.35;;
11771;SDS011;12556;55.748;13.194;2023-06-14T07:27:14;68.10;;;64.85;;
11771;SDS011;12556;55.748;13.194;2023-06-14T07:29:41;77.05;;;73.80;;
11771;SDS011;12556;55.748;13.194;2023-06-14T07:32:08;82.75;;;79.38;;
11771;SDS011;12556;55.748;13.194;2023-06-14T07:34:35;90.53;;;86.93;;
11771;SDS011;12556;55.748;13.194;2023-06-14T07:37:02;92.72;;;88.72;;
11771;SDS011;12556;55.748;13.194;2023-06-14T07:39:29;107.57;;;103.22;;
11771;SDS011;12556;55.748;13.194;2023-06-14T07:41:57;121.05;;;116.13;;
11771;SDS011;12556;55.748;13.194;2023-06-14T07:44:24;124.07;;;119.47;;
11771;SDS011;12556;55.748;13.194;2023-06-14T07:46:52;126.95;;;121.88;;
11771;SDS011;12556;55.748;13.194;2023-06-14T07:49:19;127.10;;;122.40;;
11771;SDS011;12556;55.748;13.194;2023-06-14T07:51:45;97.07;;;93.38;;
11771;SDS011;12556;55.748;13.194;2023-06-14T07:54:13;134.95;;;129.90;;
11771;SDS011;12556;55.748;13.194;2023-06-14T07:56:40;139.23;;;133.80;;
11771;SDS011;12556;55.748;13.194;2023-06-14T07:59:09;141.40;;;136.07;;
11771;SDS011;12556;55.748;13.194;2023-06-14T08:01:36;146.85;;;141.32;;
11771;SDS011;12556;55.748;13.194;2023-06-14T08:04:04;164.68;;;158.45;;
11771;SDS011;12556;55.748;13.194;2023-06-14T08:06:31;197.80;;;190.48;;
11771;SDS011;12556;55.748;13.194;2023-06-14T08:08:59;223.23;;;214.82;;
11771;SDS011;12556;55.748;13.194;2023-06-14T08:11:26;199.63;;;191.77;;
11771;SDS011;12556;55.748;13.194;2023-06-14T08:13:53;270.02;;;260.15;;
11771;SDS011;12556;55.748;13.194;2023-06-14T08:16:21;273.65;;;263.00;;
11771;SDS011;12556;55.748;13.194;2023-06-14T08:18:48;298.15;;;286.58;;
11771;SDS011;12556;55.748;13.194;2023-06-14T08:21:15;235.40;;;226.55;;
11771;SDS011;12556;55.748;13.194;2023-06-14T08:23:43;242.73;;;233.52;;
11771;SDS011;12556;55.748;13.194;2023-06-14T08:26:10;340.33;;;326.83;;
11771;SDS011;12556;55.748;13.194;2023-06-14T08:28:37;295.38;;;284.05;;
11771;SDS011;12556;55.748;13.194;2023-06-14T08:31:04;354.70;;;340.13;;
11771;SDS011;12556;55.748;13.194;2023-06-14T08:33:32;360.10;;;345.80;;
11771;SDS011;12556;55.748;13.194;2023-06-14T08:35:59;389.92;;;373.88;;
11771;SDS011;12556;55.748;13.194;2023-06-14T08:38:26;352.98;;;338.58;;
11771;SDS011;12556;55.748;13.194;2023-06-14T08:40:53;337.33;;;324.02;;
11771;SDS011;12556;55.748;13.194;2023-06-14T08:43:23;390.52;;;374.75;;
11771;SDS011;12556;55.748;13.194;2023-06-14T08:45:51;424.13;;;406.15;;
11771;SDS011;12556;55.748;13.194;2023-06-14T08:48:24;442.77;;;423.70;;
11771;SDS011;12556;55.748;13.194;2023-06-14T08:50:54;403.35;;;386.77;;
11771;SDS011;12556;55.748;13.194;2023-06-14T08:53:26;418.63;;;401.13;;
11771;SDS011;12556;55.748;13.194;2023-06-14T08:55:57;432.58;;;413.33;;
11771;SDS011;12556;55.748;13.194;2023-06-14T08:58:26;451.67;;;431.92;;
11771;SDS011;12556;55.748;13.194;2023-06-14T09:00:54;474.45;;;453.20;;
11771;SDS011;12556;55.748;13.194;2023-06-14T09:03:22;515.15;;;491.52;;
11771;SDS011;12556;55.748;13.194;2023-06-14T09:05:56;509.88;;;486.92;;
11771;SDS011;12556;55.748;13.194;2023-06-14T09:08:26;550.00;;;523.83;;
11771;SDS011;12556;55.748;13.194;2023-06-14T09:10:55;548.10;;;521.88;;
11771;SDS011;12556;55.748;13.194;2023-06-14T09:13:23;575.40;;;547.92;;
11771;SDS011;12556;55.748;13.194;2023-06-14T09:15:50;611.72;;;580.90;;
11771;SDS011;12556;55.748;13.194;2023-06-14T09:18:17;565.53;;;538.45;;
11771;SDS011;12556;55.748;13.194;2023-06-14T09:20:45;655.50;;;620.50;;
11771;SDS011;12556;55.748;13.194;2023-06-14T09:23:14;671.83;;;635.42;;
11771;SDS011;12556;55.748;13.194;2023-06-14T09:25:47;563.08;;;534.83;;
11771;SDS011;12556;55.748;13.194;2023-06-14T09:28:14;617.47;;;586.80;;
11771;SDS011;12556;55.748;13.194;2023-06-14T09:30:41;612.83;;;582.45;;
11771;SDS011;12556;55.748;13.194;2023-06-14T09:33:08;646.22;;;611.33;;
11771;SDS011;12556;55.748;13.194;2023-06-14T09:35:35;640.53;;;606.15;;
11771;SDS011;12556;55.748;13.194;2023-06-14T09:38:02;624.78;;;592.00;;
11771;SDS011;12556;55.748;13.194;2023-06-14T09:40:32;671.00;;;634.33;;
11771;SDS011;12556;55.748;13.194;2023-06-14T09:43:00;725.40;;;683.65;;
11771;SDS011;12556;55.748;13.194;2023-06-14T09:45:30;702.78;;;662.85;;
11771;SDS011;12556;55.748;13.194;2023-06-14T09:47:57;708.22;;;668.13;;
11771;SDS011;12556;55.748;13.194;2023-06-14T09:50:24;663.22;;;628.25;;
11771;SDS011;12556;55.748;13.194;2023-06-14T09:52:52;745.40;;;701.17;;
11771;SDS011;12556;55.748;13.194;2023-06-14T09:55:21;661.17;;;626.17;;
11771;SDS011;12556;55.748;13.194;2023-06-14T09:57:50;661.60;;;625.85;;
11771;SDS011;12556;55.748;13.194;2023-06-14T10:00:19;710.83;;;670.72;;
11771;SDS011;12556;55.748;13.194;2023-06-14T10:02:48;728.80;;;685.58;;
11771;SDS011;12556;55.748;13.194;2023-06-14T10:05:21;743.17;;;698.90;;
11771;SDS011;12556;55.748;13.194;2023-06-14T10:07:51;699.55;;;659.80;;
11771;SDS011;12556;55.748;13.194;2023-06-14T10:10:19;696.03;;;657.50;;
11771;SDS011;12556;55.748;13.194;2023-06-14T10:12:46;702.17;;;662.50;;
11771;SDS011;12556;55.748;13.194;2023-06-14T10:15:16;714.38;;;672.67;;
11771;SDS011;12556;55.748;13.194;2023-06-14T10:17:49;700.50;;;661.60;;
11771;SDS011;12556;55.748;13.194;2023-06-14T10:20:24;736.47;;;693.47;;
11771;SDS011;12556;55.748;13.194;2023-06-14T10:22:58;689.63;;;650.05;;
11771;SDS011;12556;55.748;13.194;2023-06-14T10:25:30;758.70;;;713.47;;
11771;SDS011;12556;55.748;13.194;2023-06-14T10:28:04;729.70;;;687.67;;
11771;SDS011;12556;55.748;13.194;2023-06-14T10:33:36;665.83;;;628.55;;
11771;SDS011;12556;55.748;13.194;2023-06-14T10:36:09;689.72;;;651.58;;
11771;SDS011;12556;55.748;13.194;2023-06-14T10:38:56;669.97;;;634.03;;
11771;SDS011;12556;55.748;13.194;2023-06-14T10:41:25;709.20;;;668.95;;
11771;SDS011;12556;55.748;13.194;2023-06-14T10:46:56;697.42;;;657.72;;
11771;SDS011;12556;55.748;13.194;2023-06-14T10:49:36;703.78;;;663.22;;
11771;SDS011;12556;55.748;13.194;2023-06-14T10:52:08;722.28;;;680.90;;
11771;SDS011;12556;55.748;13.194;2023-06-14T10:54:56;747.15;;;703.03;;
11771;SDS011;12556;55.748;13.194;2023-06-14T10:57:34;716.33;;;674.88;;
11771;SDS011;12556;55.748;13.194;2023-06-14T11:00:02;772.05;;;724.67;;
11771;SDS011;12556;55.748;13.194;2023-06-14T11:06:10;784.90;;;737.38;;
11771;SDS011;12556;55.748;13.194;2023-06-14T11:11:52;798.03;;;748.10;;
11771;SDS011;12556;55.748;13.194;2023-06-14T11:14:22;830.97;;;776.40;;
11771;SDS011;12556;55.748;13.194;2023-06-14T11:16:49;825.95;;;773.30;;
11771;SDS011;12556;55.748;13.194;2023-06-14T11:19:16;805.42;;;755.08;;
11771;SDS011;12556;55.748;13.194;2023-06-14T11:21:46;849.85;;;794.75;;
11771;SDS011;12556;55.748;13.194;2023-06-14T11:24:14;866.03;;;807.20;;
11771;SDS011;12556;55.748;13.194;2023-06-14T11:26:41;848.60;;;792.67;;
11771;SDS011;12556;55.748;13.194;2023-06-14T11:29:08;922.67;;;854.67;;
11771;SDS011;12556;55.748;13.194;2023-06-14T11:31:35;906.30;;;841.78;;
11771;SDS011;12556;55.748;13.194;2023-06-14T11:34:02;918.13;;;850.75;;
11771;SDS011;12556;55.748;13.194;2023-06-14T11:36:30;932.08;;;864.15;;
11771;SDS011;12556;55.748;13.194;2023-06-14T11:38:59;925.75;;;859.97;;
11771;SDS011;12556;55.748;13.194;2023-06-14T11:41:31;928.83;;;861.63;;
11771;SDS011;12556;55.748;13.194;2023-06-14T11:44:00;966.25;;;889.63;;
11771;SDS011;12556;55.748;13.194;2023-06-14T11:46:27;853.08;;;798.22;;
11771;SDS011;12556;55.748;13.194;2023-06-14T11:48:54;919.45;;;854.78;;
11771;SDS011;12556;55.748;13.194;2023-06-14T11:51:21;948.60;;;876.97;;
11771;SDS011;12556;55.748;13.194;2023-06-14T11:53:48;906.15;;;841.90;;
11771;SDS011;12556;55.748;13.194;2023-06-14T11:56:16;890.72;;;830.10;;
11771;SDS011;12556;55.748;13.194;2023-06-14T11:58:43;867.30;;;809.47;;
11771;SDS011;12556;55.748;13.194;2023-06-14T12:01:13;841.35;;;785.97;;
11771;SDS011;12556;55.748;13.194;2023-06-14T12:03:46;961.65;;;888.90;;
11771;SDS011;12556;55.748;13.194;2023-06-14T12:06:14;840.50;;;784.28;;
11771;SDS011;12556;55.748;13.194;2023-06-14T12:08:43;890.13;;;827.85;;
11771;SDS011;12556;55.748;13.194;2023-06-14T12:11:11;850.50;;;794.83;;
11771;SDS011;12556;55.748;13.194;2023-06-14T12:13:40;877.90;;;818.88;;
11771;SDS011;12556;55.748;13.194;2023-06-14T12:16:07;869.58;;;811.03;;
11771;SDS011;12556;55.748;13.194;2023-06-14T12:18:35;899.42;;;836.05;;
11771;SDS011;12556;55.748;13.194;2023-06-14T12:21:05;947.60;;;875.75;;
11771;SDS011;12556;55.748;13.194;2023-06-14T12:23:39;947.92;;;877.10;;
11771;SDS011;12556;55.748;13.194;2023-06-14T12:26:11;859.85;;;802.78;;
11771;SDS011;12556;55.748;13.194;2023-06-14T12:28:41;887.97;;;826.38;;
11771;SDS011;12556;55.748;13.194;2023-06-14T12:31:09;879.50;;;821.58;;
11771;SDS011;12556;55.748;13.194;2023-06-14T12:33:37;926.83;;;861.35;;
11771;SDS011;12556;55.748;13.194;2023-06-14T12:36:04;858.72;;;801.13;;
11771;SDS011;12556;55.748;13.194;2023-06-14T12:38:32;915.47;;;849.22;;
11771;SDS011;12556;55.748;13.194;2023-06-14T12:40:59;917.67;;;852.38;;
11771;SDS011;12556;55.748;13.194;2023-06-14T12:43:26;879.47;;;817.95;;
11771;SDS011;12556;55.748;13.194;2023-06-14T12:45:55;976.13;;;900.28;;
11771;SDS011;12556;55.748;13.194;2023-06-14T12:48:22;916.83;;;849.95;;
11771;SDS011;12556;55.748;13.194;2023-06-14T12:50:48;917.22;;;850.83;;
11771;SDS011;12556;55.748;13.194;2023-06-14T12:53:15;889.90;;;829.38;;
11771;SDS011;12556;55.748;13.194;2023-06-14T12:55:43;951.47;;;879.75;;
11771;SDS011;12556;55.748;13.194;2023-06-14T12:58:10;902.25;;;839.80;;
11771;SDS011;12556;55.748;13.194;2023-06-14T13:00:39;900.22;;;837.95;;
11771;SDS011;12556;55.748;13.194;2023-06-14T13:03:07;915.70;;;851.80;;
11771;SDS011;12556;55.748;13.194;2023-06-14T13:05:34;934.25;;;865.17;;
11771;SDS011;12556;55.748;13.194;2023-06-14T13:08:02;933.13;;;863.70;;
11771;SDS011;12556;55.748;13.194;2023-06-14T13:10:29;907.58;;;843.75;;
11771;SDS011;12556;55.748;13.194;2023-06-14T13:12:56;944.40;;;875.15;;
11771;SDS011;12556;55.748;13.194;2023-06-14T13:15:25;936.78;;;867.72;;
11771;SDS011;12556;55.748;13.194;2023-06-14T13:17:52;932.30;;;864.40;;
11771;SDS011;12556;55.748;13.194;2023-06-14T13:20:21;940.58;;;870.55;;
11771;SDS011;12556;55.748;13.194;2023-06-14T13:22:48;971.28;;;897.42;;
11771;SDS011;12556;55.748;13.194;2023-06-14T13:25:15;962.40;;;889.90;;
11771;SDS011;12556;55.748;13.194;2023-06-14T13:27:42;962.80;;;891.30;;
11771;SDS011;12556;55.748;13.194;2023-06-14T13:30:09;970.92;;;896.67;;
11771;SDS011;12556;55.748;13.194;2023-06-14T13:32:37;984.45;;;904.97;;
11771;SDS011;12556;55.748;13.194;2023-06-14T13:35:04;967.15;;;894.53;;
11771;SDS011;12556;55.748;13.194;2023-06-14T13:37:33;974.95;;;901.33;;
11771;SDS011;12556;55.748;13.194;2023-06-14T13:40:00;1032.32;;;947.75;;
11771;SDS011;12556;55.748;13.194;2023-06-14T13:42:27;1031.28;;;942.58;;
11771;SDS011;12556;55.748;13.194;2023-06-14T13:44:56;973.20;;;899.17;;
11771;SDS011;12556;55.748;13.194;2023-06-14T13:47:23;957.83;;;884.47;;
11771;SDS011;12556;55.748;13.194;2023-06-14T13:49:50;948.85;;;878.00;;
11771;SDS011;12556;55.748;13.194;2023-06-14T13:52:17;973.47;;;899.50;;
11771;SDS011;12556;55.748;13.194;2023-06-14T13:54:45;995.08;;;918.22;;
11771;SDS011;12556;55.748;13.194;2023-06-14T13:57:12;959.22;;;887.33;;
11771;SDS011;12556;55.748;13.194;2023-06-14T13:59:39;948.65;;;878.78;;
11771;SDS011;12556;55.748;13.194;2023-06-14T14:02:06;1013.67;;;929.65;;
11771;SDS011;12556;55.748;13.194;2023-06-14T14:04:33;1010.17;;;926.78;;
11771;SDS011;12556;55.748;13.194;2023-06-14T14:07:01;935.70;;;868.10;;
11771;SDS011;12556;55.748;13.194;2023-06-14T14:09:28;960.05;;;887.20;;
11771;SDS011;12556;55.748;13.194;2023-06-14T14:11:57;999.60;;;918.45;;
11771;SDS011;12556;55.748;13.194;2023-06-14T14:14:24;956.55;;;883.25;;
11771;SDS011;12556;55.748;13.194;2023-06-14T14:16:51;957.03;;;884.47;;
11771;SDS011;12556;55.748;13.194;2023-06-14T14:19:18;898.72;;;837.15;;
11771;SDS011;12556;55.748;13.194;2023-06-14T14:21:45;936.50;;;867.25;;
11771;SDS011;12556;55.748;13.194;2023-06-14T14:24:12;876.53;;;817.55;;
11771;SDS011;12556;55.748;13.194;2023-06-14T14:26:39;939.33;;;869.00;;